SÍGUENOS

APP INUMET

Disponible en Google Play

Productos aeronáuticos

  • SIGMET
  • METAR / SPECI
  • TAF
  • AIREP
  • Aviso de aeródromo
  • Pronárea
  • Carta superficie
Fecha : 25/02/2018
FTUY 02 SUMU 25 05 30
SUMU TAF 250530Z 2506/2606 12015KT CAVOK TX26/2518Z TN15/2509Z PROB30 TEMPO 2507/2510 3500 BR FEW010 BECMG 2511/2515 09010KT 9999 FEW020 BKN200 BECMG 2516/2520 12015KT=
SULS TAF 250530Z 2506/2606 11010KT CAVOK TX25/2518Z TN15/2509Z PROB40 TEMPO 2507/2510 2500 BR FEW008 BECMG 2511/2515 08010KT 9999 FEW017 BKN200 BECMG 2516/2520 12015KT=
SUAA TAF 250530Z 2506/2606 12010KT CAVOK TX27/2518Z TN15/2509Z PROB40 TEMPO 2507/2510 3000 BR FEW010 BECMG 2511/2515 09008KT 9999 FEW020 BKN200=
SUCA TAF 250530Z 2506/2606 12010KT CAVOK TX28/2518Z TN16/2509Z PROB30 TEMPO 2507/2510 4000 BR NSC BECMG 2511/2515 07010KT 9999 FEW023 SCT200=
SUDU TAF 250530Z 2506/2606 14010KT CAVOK TX29/2518Z TN15/2509Z BECMG 2507/2510 1500 BR FEW008 BECMG 2511/2515 08008KT 9999 FEW023 SCT200=
SUSO TAF 250530Z 2506/2606 11010KT CAVOK TX32/2518Z TN17/2509Z PROB30 TEMPO 2507/2510 5000 BR NSC BECMG 2511/2515 07010KT 9999 FEW025 SCT200=
SURV TAF 250530Z 2506/2606 10012KT CAVOK TX30/2518Z TN16/2509Z PROB40 TEMPO 2507/2510 0800 BCFG FEW008 BECMG 2511/2515 07010KT 9999 FEW025 SCT200=

Predictor : Alejandro Curiel


Mensajes TAF vigentes - Internacionales


Argentina
TAF SACO 250500Z 2500/2524 18005KT VIS7000M VCTS SHRA BKN030 FEW040CB TX31/2518Z TN17/2509Z BECMG 2507/2510 VIS5000M TS SHRA BKN015 FEW030CB BECMG 1315 14005KT 9999 BKN030 FEW040TCU
TAF SABE 242300Z 2500/2524 11015KT CAVOK TX27/2518Z TN18/2509Z BECMG 2505/2507 07010KT 9999 SCT025 BECMG 2518/2520 10015KT CAVOK
TAF SAAR 242300Z 2500/2524 09010KT CAVOK TX30/2518Z TN18/2509Z
TAF SAME 242300Z 2500/2524 05005KT 9999 SCT040 TN16/2510Z TX28/2520Z
TAF SAEZ 242300Z 2500/2524 09010KT CAVOK TX30/2518Z TN15/2508Z BECMG 2505/2507 13005KT 5000 BR SCT020 BECMG 2510/2512 CAVOK BECMG 2517/2519 09015KT
Bolivia
TAF SLLP 242230Z 2500/2524 06005KT 9999 SCT015 FEW017CB SCT070 TX14/2520Z TN04/2510Z TEMPO 2506/2509 3000E VCFG FEW002 PROB40 TEMPO 2517/2520 8000 VCTS FEW020CB
Brasil
TAF SBFI 242215Z 2500/2524 14004KT 9999 FEW035 TN20/2508Z TX33/2518Z BECMG 2501/2503 CAVOK RMK PCX
TAF SBPA 242215Z 2500/2524 11014KT 9999 BKN030 TN20/2509Z TX30/2518Z BECMG 2501/2503 10007KT BECMG 2510/2512 SCT040 RMK PCX
TAF SBFL 242215Z 2500/2524 04004KT 9999 SCT020 TN22/2508Z TX27/2518Z BECMG 2506/2508 BKN025 PROB40 TEMPO 2516/2518 VCSH BKN030 FEW035TCU RMK PC X
TAF SBGR 242203Z 2500/2606 12007KT 8000 BKN015 TN17/2507Z TX27/2517Z BECMG 2502/2504 11004KT FEW015 BECMG 2507/2509 10003KT BKN015 PROB30 2509/2511 BKN011 BECMG 2511/2513 09008KT FEW030 BECMG 2515/2517 11008KT SCT040 BECMG 2517/2519 12008KT BECMG 2519/2521 14008KT SCT035 BECMG 2521/2523 BKN015 RMK PGM
TAF SBSP 242203Z 2500/2524 15010KT 9999 BKN015 TN17/2506Z TX26/2516Z BECMG 2503/2505 15005KT FEW015 PROB30 2507/2509 BKN011 BECMG 2511/2513 13005KT FEW030 BECMG 2515/2517 15010KT SCT035 BECMG 2517/2519 16012KT BECMG 2519/2521 SCT025 BECMG 2521/2523 BKN013 RMK PGM
TAF SBBR 242200Z 2500/2524 15008KT 9999 FEW015 FEW040TCU TN19/2508Z T X28/2517Z PROB30 2500/2503 4000 TSRA FEW010 FEW040CB BECMG 2503/2504 16003KT FEW015 BECMG 2510/2512 35005KT SCT030 BECMG 2514/2516 15007KT BKN030 FEW040TCU BECMG 2518/2520 33008KT SCT035 FEW040TCU BECMG 2522/2524 15005KT VCTS FEW035 FEW040CB RMK PEW
TAF SBRJ 241435Z 2418/2506 15010KT 9999 SCT017TX28/2418Z TN24/2506Z BECMG 2419/2421 16010KT SCT025 BECMG 2422/2424 03005KT BECMG 2504/2506 07005KT SCT015 RMK PFV
Chile
TAF SCCI 242212Z 2500/2600 25020KT 9999 SCT037 TN08/2509Z TX15/2520Z BECMG 2500/2502 29012KT PROB30 TEMPO 2503/2507 9000 -SHRA SCT015 BKN030 BECMG 2512/2514 30020G30KT -SHRA FEW020 SCT033 PROB40 TEMPO 2518/2600 28028G40KT
TAF SCEL 242200Z 2500/2524 18012KT CAVOK TX30/2519Z TN13/2510Z BECMG 2502/2504 16007KT TEMPO 2508/2514 VRB02KT 7000 NSC BECMG 2515/2517 20005KT BECMG 2518/2520 20014KT
Ecuador
SEQM 242230Z 2500/2524 03004KT 9999 FEW010 BKN020 FM250600 00000KT 6000 BCFG SCT005 BKN010 FM251300 VRB03KT 9999 SCT030 FM251800 16012KT 9999 SCT033 SCT100 TX22/2519Z TN11/2511Z
EEUU
KMIA 250426Z 2504/2606 11010KT P6SM VCSH SCT025 BKN040 FM250600 11006KT P6SM SCT025 BKN040 FM251500 12011KT P6SM FEW025 SCT050 FM260300 11006KT P6SM SCT025 BKN040
KLGA 250255Z 2503/2606 05009KT 5SM -SHRA BR OVC007 FM250500 06008KT 3SM BR SCT020 OVC040 TEMPO 2507/2509 BKN015 FM250900 08012G19KT 3SM RA BR OVC008 FM251100 09015G24KT 2SM RA BR OVC008 FM251800 07006KT 2SM -RA BR OVC008 TEMPO 2518/2521 1SM BR OVC004 FM252100 35005KT 4SM BR BKN015 FM260400 32004KT P6SM SCT015 BKN250
KJFK 250255Z 2503/2606 04008KT 4SM -SHRA BR OVC008 FM250500 06008KT 3SM BR SCT020 OVC040 TEMPO 2507/2509 BKN015 FM250900 08012G19KT 3SM RA BR OVC008 FM251100 09015G24KT 2SM RA BR OVC008 FM251800 07006KT 2SM -RA BR OVC008 TEMPO 2518/2521 1SM BR OVC004 FM252100 35005KT 4SM BR BKN015 FM260400 31004KT P6SM SCT015 BKN250
KIAD 242338Z 2500/2606 04006KT 3SM -SHRADZ BR BKN009 OVC025 FM250400 08006KT 3SM -SHRADZ BR BKN003 OVC025 FM250900 11005KT 3/4SM -SHRADZ BR BKN003 OVC025 FM251500 19008KT 2SM -SHRA BR SCT025 OVC045 FM251800 21011G20KT P6SM SCT025 OVC070 FM260000 30007KT P6SM SCT150 BKN250
KDCA 242338Z 2500/2606 05007KT 3SM -SHRADZ BR BKN010 OVC025 FM250200 06007KT 3SM -SHRADZ BR BKN009 OVC025 FM251100 11006KT 1SM -SHRADZ BR BKN003 OVC025 FM251500 19008KT 2SM -SHRA BR SCT025 OVC040 FM251800 21011G19KT P6SM SCT025 OVC070 FM260000 29007KT P6SM SCT070 BKN250
Francia
TAF LFPO 242300Z 2500/2606 05010KT CAVOK PROB40 TEMPO 2509/2518 05012G22KT
Paraguay
TAF SGAS 242120Z 2500/2600 11003KT CAVOK TX35/2518Z TN22/2509Z BECMG 2511/2513 VRB04KT
Venezuela
SVMI 242200Z 2500/2600 09010KT 9999 FEW013 TX33/18Z TN24/09Z BECMG 2500/2504 08005KT

* Datos extraidos del Text DataServer de la NOAA (NOAA TEXT DATA SERVER)

Instituto Uruguayo de Meteorología

Dr. Javier Barrios Amorín 1488 - CP 11200
Mesa Central (598) 1895 - Desde el interior 21895

Montevideo - Uruguay